Time;durP1;ratioP1;P1;durP2;ratioP2;P2;SDS_P1;SDS_P2;PMS_P1;PMS_P2;Temp;Humidity;BMP_temperature;BMP_pressure;BME280_temperature;BME280_humidity;BME280_pressure;Samples;Min_cycle;Max_cycle;Signal;HPM_P1;HPM_P2
2021/01/29 00:00:51;;;;;;;0.17;0.17;;;9.30;83.40;;;;;;5024204;28;20021;-73
2021/01/29 00:03:17;;;;;;;0.40;0.10;;;9.30;84.00;;;;;;5015914;28;20134;-73
2021/01/29 00:05:54;;;;;;;0.10;0.10;;;9.20;84.20;;;;;;5015767;28;20038;-74
2021/01/29 00:08:21;;;;;;;0.20;0.20;;;9.20;84.60;;;;;;5015900;28;20356;-74
2021/01/29 00:10:47;;;;;;;0.00;0.00;;;9.20;84.30;;;;;;5015707;28;20474;-75
2021/01/29 00:13:14;;;;;;;0.00;0.00;;;9.20;84.10;;;;;;5015324;28;20145;-74
2021/01/29 00:15:41;;;;;;;0.25;0.20;;;9.20;84.10;;;;;;5015344;28;20071;-75
2021/01/29 00:18:06;;;;;;;0.13;0.10;;;9.20;84.00;;;;;;5015111;28;20042;-76
2021/01/29 00:20:32;;;;;;;0.55;0.22;;;9.20;83.80;;;;;;5014774;28;20474;-76
2021/01/29 00:22:58;;;;;;;1.55;0.20;;;9.20;83.70;;;;;;5015189;28;20036;-76
2021/01/29 00:25:31;;;;;;;0.10;0.10;;;9.20;83.70;;;;;;5015088;28;20117;-76
2021/01/29 00:27:57;;;;;;;0.20;0.20;;;9.20;83.50;;;;;;5014988;28;20052;-75
2021/01/29 00:30:22;;;;;;;0.20;0.20;;;9.20;83.50;;;;;;5014847;28;20393;-76
2021/01/29 00:32:49;;;;;;;0.88;0.30;;;9.10;83.70;;;;;;5014528;28;20037;-75
2021/01/29 00:35:15;;;;;;;0.82;0.35;;;9.10;83.90;;;;;;5014845;28;20029;-74
2021/01/29 00:37:42;;;;;;;1.98;0.60;;;9.10;84.00;;;;;;5014475;28;20075;-73
2021/01/29 00:40:08;;;;;;;0.85;0.70;;;9.10;84.10;;;;;;5014738;28;20076;-74
2021/01/29 00:42:34;;;;;;;0.98;0.70;;;9.10;84.20;;;;;;5014681;28;20022;-73
2021/01/29 00:45:00;;;;;;;0.50;0.45;;;9.10;84.10;;;;;;5014656;28;20032;-72
2021/01/29 00:47:25;;;;;;;0.43;0.32;;;9.00;84.10;;;;;;5014499;28;20026;-73
2021/01/29 00:49:51;;;;;;;0.30;0.30;;;9.00;84.20;;;;;;5014742;28;20436;-72
2021/01/29 00:52:17;;;;;;;0.20;0.10;;;9.00;84.10;;;;;;5014652;28;20025;-72
2021/01/29 00:54:42;;;;;;;0.47;0.20;;;9.00;83.70;;;;;;5014218;28;20061;-73
2021/01/29 00:57:09;;;;;;;0.93;0.10;;;9.10;83.70;;;;;;5015479;28;20500;-74
2021/01/29 00:59:35;;;;;;;0.05;0.05;;;9.10;84.40;;;;;;5014328;28;20390;-73
2021/01/29 01:02:01;;;;;;;0.22;0.08;;;9.00;85.30;;;;;;5013230;28;20026;-73
2021/01/29 01:04:27;;;;;;;0.55;0.20;;;9.00;86.40;;;;;;5014374;28;20068;-73
2021/01/29 01:06:52;;;;;;;1.35;0.22;;;9.00;87.00;;;;;;5014319;28;20026;-73
2021/01/29 01:09:18;;;;;;;0.38;0.30;;;9.00;87.20;;;;;;5014876;28;20026;-73
2021/01/29 01:11:43;;;;;;;0.98;0.30;;;9.00;87.60;;;;;;5016675;28;20061;-72
2021/01/29 01:14:09;;;;;;;0.75;0.20;;;8.90;87.40;;;;;;5016519;28;20407;-73
2021/01/29 01:16:34;;;;;;;1.75;0.45;;;8.90;87.40;;;;;;5016931;28;20068;-73
2021/01/29 01:19:00;;;;;;;0.32;0.20;;;8.90;87.80;;;;;;5018150;28;20041;-73
2021/01/29 01:21:25;;;;;;;1.38;0.10;;;8.80;88.20;;;;;;5015647;28;20490;-73
2021/01/29 01:23:51;;;;;;;0.63;0.17;;;8.80;89.10;;;;;;5014078;28;20121;-73
2021/01/29 01:26:17;;;;;;;0.13;0.10;;;8.90;88.20;;;;;;5015263;28;20034;-73
2021/01/29 01:28:42;;;;;;;0.20;0.15;;;8.90;88.20;;;;;;5015239;28;20053;-73
2021/01/29 01:31:08;;;;;;;0.73;0.40;;;8.90;88.20;;;;;;5013623;28;20041;-73
2021/01/29 01:33:33;;;;;;;1.10;0.30;;;8.90;88.00;;;;;;5014867;28;20030;-73
2021/01/29 01:35:59;;;;;;;0.38;0.10;;;8.80;88.10;;;;;;5014898;28;20418;-73
2021/01/29 01:38:25;;;;;;;0.30;0.20;;;8.80;89.20;;;;;;5014728;28;20120;-73
2021/01/29 01:40:50;;;;;;;0.43;0.20;;;8.70;90.10;;;;;;5013439;28;20143;-73
2021/01/29 01:43:16;;;;;;;0.15;0.08;;;8.70;90.10;;;;;;5014656;28;20049;-73
2021/01/29 01:45:54;;;;;;;0.20;0.10;;;8.80;89.50;;;;;;5014524;28;20062;-73
2021/01/29 01:48:49;;;;;;;0.30;0.10;;;8.80;89.30;;;;;;5014632;28;20482;-73
2021/01/29 01:51:26;;;;;;;0.08;0.08;;;8.80;89.20;;;;;;5014547;28;20489;-73
2021/01/29 01:53:54;;;;;;;0.73;0.20;;;8.80;89.00;;;;;;5014650;28;20304;-73
2021/01/29 01:56:26;;;;;;;0.10;0.10;;;8.90;88.80;;;;;;5014441;28;20026;-73
2021/01/29 01:58:58;;;;;;;0.82;0.20;;;9.00;88.30;;;;;;5014228;28;20476;-72
2021/01/29 02:01:24;;;;;;;0.40;0.10;;;9.10;87.90;;;;;;5014307;28;20493;-73
2021/01/29 02:03:52;;;;;;;0.00;0.00;;;9.10;87.30;;;;;;5014097;28;20038;-73
2021/01/29 02:06:20;;;;;;;0.65;0.10;;;9.20;86.60;;;;;;5014433;28;20050;-73
2021/01/29 02:08:46;;;;;;;0.20;0.15;;;9.30;85.40;;;;;;5014196;28;20022;-73
2021/01/29 02:11:17;;;;;;;0.40;0.20;;;9.40;84.50;;;;;;5014082;28;20498;-73
2021/01/29 02:13:42;;;;;;;0.60;0.10;;;9.50;83.90;;;;;;5014198;28;20483;-72
2021/01/29 02:16:18;;;;;;;0.40;0.10;;;9.50;83.50;;;;;;5014354;28;20062;-73
2021/01/29 02:19:02;;;;;;;0.95;0.10;;;9.60;83.10;;;;;;5014110;28;20033;-73
2021/01/29 02:22:03;;;;;;;0.03;0.03;;;9.60;82.90;;;;;;5014218;28;20076;-73
2021/01/29 02:24:48;;;;;;;0.60;0.00;;;9.60;80.30;;;;;;4994734;28;20045;-73
2021/01/29 02:27:22;;;;;;;1.77;0.20;;;9.70;79.10;;;;;;5013994;28;20058;-72
2021/01/29 02:30:09;;;;;;;0.28;0.20;;;9.70;79.30;;;;;;5013933;28;20029;-72
2021/01/29 02:33:20;;;;;;;0.17;0.10;;;9.60;79.70;;;;;;5013919;28;20022;-72
2021/01/29 02:36:10;;;;;;;0.15;0.00;;;9.60;80.00;;;;;;5013996;28;20037;-72
2021/01/29 02:38:57;;;;;;;0.10;0.00;;;9.60;80.20;;;;;;5013646;28;20494;-73
2021/01/29 02:41:41;;;;;;;1.25;0.10;;;9.60;79.60;;;;;;5012521;28;20026;-73
2021/01/29 02:44:31;;;;;;;0.63;0.10;;;9.60;79.80;;;;;;5013797;28;20030;-72
2021/01/29 02:47:06;;;;;;;0.30;0.10;;;9.50;80.40;;;;;;5013793;28;20022;-73
2021/01/29 02:50:01;;;;;;;0.32;0.08;;;9.40;80.60;;;;;;5013787;28;20072;-72
2021/01/29 02:52:29;;;;;;;0.10;0.00;;;9.40;80.80;;;;;;5013739;28;20367;-72
2021/01/29 02:55:06;;;;;;;1.08;0.15;;;9.40;81.70;;;;;;5013664;28;20021;-73
2021/01/29 02:57:51;;;;;;;0.30;0.10;;;9.30;81.80;;;;;;5013561;28;20037;-73
2021/01/29 03:00:41;;;;;;;1.02;0.15;;;9.20;82.60;;;;;;5013490;28;20026;-72
2021/01/29 03:03:25;;;;;;;0.17;0.05;;;9.20;82.60;;;;;;5013425;28;20107;-73
2021/01/29 03:05:56;;;;;;;0.43;0.10;;;9.20;82.90;;;;;;5013409;28;20443;-73
2021/01/29 03:08:32;;;;;;;0.20;0.10;;;9.20;81.90;;;;;;5013436;28;20084;-73
2021/01/29 03:11:13;;;;;;;0.32;0.10;;;9.10;82.50;;;;;;5013365;28;20018;-73
2021/01/29 03:13:58;;;;;;;0.10;0.10;;;9.10;82.10;;;;;;5013412;28;20022;-72
2021/01/29 03:16:29;;;;;;;0.20;0.20;;;9.10;82.30;;;;;;5013573;28;20475;-73
2021/01/29 03:19:06;;;;;;;1.13;0.35;;;9.10;81.70;;;;;;5015012;28;20041;-72
2021/01/29 03:21:38;;;;;;;0.80;0.10;;;9.20;81.70;;;;;;5015023;28;20022;-72
2021/01/29 03:24:16;;;;;;;1.92;0.10;;;9.10;82.50;;;;;;5020248;28;20187;-72
2021/01/29 03:27:00;;;;;;;2.20;0.13;;;9.10;82.80;;;;;;5022419;28;20048;-72
2021/01/29 03:29:31;;;;;;;1.23;0.30;;;9.00;84.10;;;;;;5020564;28;20136;-73
2021/01/29 03:32:01;;;;;;;0.00;0.00;;;8.90;84.40;;;;;;5019898;28;20053;-72
2021/01/29 03:34:35;;;;;;;0.30;0.10;;;8.80;84.60;;;;;;5019646;28;20033;-73
2021/01/29 03:37:20;;;;;;;0.35;0.08;;;8.70;85.60;;;;;;5018297;28;20156;-73
2021/01/29 03:39:46;;;;;;;0.30;0.00;;;8.70;86.30;;;;;;5019754;28;20037;-72
2021/01/29 03:42:27;;;;;;;0.65;0.10;;;8.60;86.20;;;;;;5019579;28;20037;-73
2021/01/29 03:45:16;;;;;;;1.00;0.10;;;8.60;87.00;;;;;;5019590;28;20117;-72
2021/01/29 03:47:57;;;;;;;0.65;0.10;;;8.50;87.20;;;;;;5010299;28;20040;-73
2021/01/29 03:50:35;;;;;;;0.00;0.00;;;8.50;86.90;;;;;;5019492;28;20075;-73
2021/01/29 03:53:10;;;;;;;0.20;0.10;;;8.50;86.70;;;;;;5019499;28;20022;-73
2021/01/29 03:55:47;;;;;;;1.63;0.10;;;8.50;85.40;;;;;;5019412;28;20033;-73
2021/01/29 03:58:23;;;;;;;0.22;0.10;;;8.50;85.40;;;;;;5019355;28;20285;-73
2021/01/29 04:01:30;;;;;;;0.05;0.00;;;8.50;86.00;;;;;;5019398;28;20071;-72
2021/01/29 04:04:08;;;;;;;;;;;8.50;85.70;;;;;;5019579;28;20502;-72
2021/01/29 04:06:53;;;;;;;0.10;0.10;;;8.40;86.00;;;;;;5019457;28;20392;-73
2021/01/29 04:09:27;;;;;;;0.45;0.20;;;8.40;85.70;;;;;;5019372;28;20443;-72
2021/01/29 04:11:58;;;;;;;0.60;0.08;;;8.30;86.90;;;;;;5019274;28;20026;-73
2021/01/29 04:14:35;;;;;;;0.22;0.10;;;8.30;86.20;;;;;;5018098;28;20036;-72
2021/01/29 04:17:08;;;;;;;0.20;0.10;;;8.30;86.50;;;;;;5019216;28;20080;-72
2021/01/29 04:19:37;;;;;;;0.13;0.10;;;8.20;86.80;;;;;;5019188;28;20478;-72
2021/01/29 04:22:14;;;;;;;0.65;0.10;;;8.20;87.40;;;;;;5019209;28;20124;-72
2021/01/29 04:24:53;;;;;;;0.63;0.10;;;8.10;87.80;;;;;;5019288;28;20037;-73
2021/01/29 04:27:24;;;;;;;0.10;0.10;;;8.00;88.60;;;;;;5019289;28;20018;-72
2021/01/29 04:30:04;;;;;;;0.57;0.10;;;7.90;87.90;;;;;;5017905;28;20022;-72
2021/01/29 04:32:43;;;;;;;0.88;0.20;;;7.90;87.80;;;;;;5019123;28;20033;-73
2021/01/29 04:35:11;;;;;;;0.00;0.00;;;7.80;88.70;;;;;;5017886;28;20018;-72
2021/01/29 04:37:51;;;;;;;0.25;0.10;;;7.90;88.40;;;;;;5015391;28;20375;-72
2021/01/29 04:40:28;;;;;;;0.22;0.22;;;7.80;88.30;;;;;;5016007;28;20022;-72
2021/01/29 04:43:19;;;;;;;1.50;0.10;;;7.90;89.30;;;;;;5015817;28;20037;-72
2021/01/29 04:45:49;;;;;;;0.08;0.08;;;7.90;88.30;;;;;;5007666;28;20124;-72
2021/01/29 04:48:29;;;;;;;4.88;0.30;;;7.90;88.00;;;;;;5016031;28;20030;-72
2021/01/29 04:51:18;;;;;;;0.00;0.00;;;7.90;88.10;;;;;;5024192;28;20030;-73
2021/01/29 04:53:56;;;;;;;1.05;0.20;;;7.90;87.10;;;;;;5016612;28;20038;-72
2021/01/29 04:57:00;;;;;;;0.30;0.10;;;7.90;87.40;;;;;;5015807;28;20033;-72
2021/01/29 05:00:03;;;;;;;0.22;0.20;;;8.00;87.40;;;;;;5012452;28;20117;-73
2021/01/29 05:03:02;;;;;;;0.00;0.00;;;7.90;87.80;;;;;;5015244;28;20053;-73
2021/01/29 05:06:05;;;;;;;0.85;0.00;;;7.90;88.00;;;;;;5015442;28;20030;-72
2021/01/29 05:09:01;;;;;;;0.45;0.00;;;8.00;88.00;;;;;;5012378;28;20040;-72
2021/01/29 05:11:39;;;;;;;0.00;0.00;;;8.00;89.00;;;;;;5015472;28;20096;-72
2021/01/29 05:14:20;;;;;;;0.65;0.20;;;8.00;88.90;;;;;;5014015;28;20565;-73
2021/01/29 05:17:06;;;;;;;0.00;0.00;;;8.00;88.90;;;;;;5015343;28;20033;-73
2021/01/29 05:20:00;;;;;;;0.47;0.00;;;8.00;88.40;;;;;;5015271;28;20088;-73
2021/01/29 05:22:51;;;;;;;0.20;0.00;;;8.10;88.10;;;;;;5015178;28;20379;-73
2021/01/29 05:25:29;;;;;;;0.80;0.00;;;8.20;88.10;;;;;;5015176;28;20475;-76
2021/01/29 05:28:28;;;;;;;0.40;0.00;;;8.10;88.70;;;;;;5015082;28;20025;-72
2021/01/29 05:31:07;;;;;;;0.30;0.03;;;8.20;88.60;;;;;;5014844;28;20022;-72
2021/01/29 05:33:54;;;;;;;2.28;0.20;;;8.20;88.80;;;;;;5014929;28;20440;-72
2021/01/29 05:37:05;;;;;;;0.30;0.10;;;8.40;89.20;;;;;;5014820;28;20029;-73
2021/01/29 05:39:56;;;;;;;0.20;0.10;;;8.50;89.20;;;;;;4991919;28;20486;-72
2021/01/29 05:42:58;;;;;;;0.40;0.10;;;8.70;89.00;;;;;;5014643;28;20041;-72
2021/01/29 05:45:38;;;;;;;0.10;0.00;;;8.80;88.50;;;;;;5014920;28;20037;-72
2021/01/29 05:48:41;;;;;;;0.32;0.20;;;8.90;87.80;;;;;;5014380;28;20030;-71
2021/01/29 05:51:16;;;;;;;0.00;0.00;;;8.90;87.50;;;;;;5013331;28;20034;-72
2021/01/29 05:54:06;;;;;;;0.03;0.03;;;9.00;87.50;;;;;;5014696;28;20028;-72
2021/01/29 05:56:54;;;;;;;0.00;0.00;;;9.00;87.50;;;;;;5015040;28;20077;-72
2021/01/29 05:59:26;;;;;;;0.17;0.00;;;9.10;87.10;;;;;;5015470;28;20058;-72
2021/01/29 06:01:54;;;;;;;0.03;0.00;;;9.20;86.70;;;;;;5015110;28;20105;-72
2021/01/29 06:04:55;;;;;;;0.03;0.03;;;9.20;85.70;;;;;;5014421;28;20034;-72
2021/01/29 06:07:52;;;;;;;0.55;0.28;;;9.20;85.50;;;;;;4960717;28;20488;-73
2021/01/29 06:10:43;;;;;;;0.55;0.20;;;9.30;85.30;;;;;;5014210;28;20080;-73
2021/01/29 06:13:30;;;;;;;1.33;0.40;;;9.40;84.30;;;;;;5014608;28;20034;-74
2021/01/29 06:16:45;;;;;;;0.00;0.00;;;9.50;84.00;;;;;;5014149;28;20018;-74
2021/01/29 06:19:32;;;;;;;0.13;0.05;;;9.50;83.90;;;;;;5013998;28;20129;-74
2021/01/29 06:22:28;;;;;;;0.20;0.10;;;9.60;84.10;;;;;;5013885;28;20137;-73
2021/01/29 06:25:22;;;;;;;0.08;0.08;;;9.60;85.00;;;;;;5013899;28;20026;-73
2021/01/29 06:28:25;;;;;;;2.85;0.75;;;9.50;86.30;;;;;;5013898;28;20123;-73
2021/01/29 06:31:02;;;;;;;1.05;0.30;;;9.40;87.50;;;;;;5013495;28;20029;-74
2021/01/29 06:33:54;;;;;;;0.50;0.40;;;9.00;86.60;;;;;;5013396;28;20053;-74
2021/01/29 06:36:32;;;;;;;0.38;0.20;;;8.70;87.60;;;;;;5013594;28;20033;-73
2021/01/29 06:39:11;;;;;;;0.68;0.38;;;8.50;87.40;;;;;;5013390;28;20502;-74
2021/01/29 06:42:07;;;;;;;0.30;0.10;;;8.30;86.30;;;;;;5013324;28;20025;-73
2021/01/29 06:44:51;;;;;;;;;;;8.30;84.90;;;;;;5013754;28;20116;-73
2021/01/29 06:47:53;;;;;;;0.60;0.28;;;8.30;84.20;;;;;;5013173;28;19911;-74
2021/01/29 06:50:34;;;;;;;4.28;1.70;;;8.20;84.00;;;;;;5013322;28;20084;-72
2021/01/29 06:53:08;;;;;;;1.40;0.40;;;8.20;84.40;;;;;;5013719;28;20025;-72
2021/01/29 06:55:59;;;;;;;2.83;0.50;;;8.20;84.40;;;;;;5013319;28;20156;-72
2021/01/29 06:58:43;;;;;;;0.70;0.30;;;8.10;84.80;;;;;;5012707;28;20038;-72
2021/01/29 07:01:15;;;;;;;0.65;0.50;;;8.10;84.90;;;;;;5013138;28;20108;-74
2021/01/29 07:04:28;;;;;;;0.68;0.20;;;8.20;84.90;;;;;;5013165;28;20172;-74
2021/01/29 07:07:08;;;;;;;1.17;0.17;;;8.30;84.90;;;;;;4967720;28;20034;-72
2021/01/29 07:09:56;;;;;;;0.22;0.17;;;8.30;84.40;;;;;;5013173;28;20030;-72
2021/01/29 07:12:50;;;;;;;0.30;0.25;;;8.30;84.60;;;;;;5013332;28;20033;-73
2021/01/29 07:15:46;;;;;;;0.57;0.32;;;8.30;84.10;;;;;;5012760;28;20113;-72
2021/01/29 07:18:45;;;;;;;1.10;0.40;;;8.30;84.40;;;;;;4986637;28;20042;-72
2021/01/29 07:21:31;;;;;;;0.85;0.47;;;8.30;84.90;;;;;;5013084;28;20032;-72
2021/01/29 07:24:13;;;;;;;0.73;0.55;;;8.30;84.20;;;;;;5013304;28;20021;-73
2021/01/29 07:26:41;;;;;;;3.60;1.17;;;8.30;84.10;;;;;;5013096;28;20026;-73
2021/01/29 07:29:38;;;;;;;3.65;0.30;;;8.30;84.10;;;;;;5012920;28;20022;-72
2021/01/29 07:32:14;;;;;;;1.17;0.45;;;8.30;84.20;;;;;;5012988;28;20108;-73
2021/01/29 07:34:52;;;;;;;1.25;0.40;;;8.30;84.40;;;;;;5013038;28;20057;-73
2021/01/29 07:37:33;;;;;;;9.23;0.90;;;8.40;84.40;;;;;;5012837;28;20510;-78
2021/01/29 07:40:24;;;;;;;1.38;0.50;;;8.50;86.50;;;;;;5012792;28;20038;-77
2021/01/29 07:43:25;;;;;;;1.10;0.52;;;8.90;83.90;;;;;;5012800;28;20133;-77
2021/01/29 07:46:03;;;;;;;1.40;0.70;;;8.90;82.50;;;;;;5012802;28;20109;-76
2021/01/29 07:48:42;;;;;;;0.93;0.45;;;9.10;81.80;;;;;;5012696;28;20026;-77
2021/01/29 07:51:48;;;;;;;0.88;0.35;;;9.30;81.20;;;;;;5010383;28;20033;-75
2021/01/29 07:55:07;;;;;;;1.38;0.50;;;9.40;79.80;;;;;;5012670;28;20053;-77
2021/01/29 07:57:51;;;;;;;0.63;0.32;;;9.40;79.60;;;;;;4951852;29;20031;-77
2021/01/29 08:00:33;;;;;;;1.20;0.35;;;9.20;80.50;;;;;;5004677;28;20432;-77
2021/01/29 08:03:29;;;;;;;1.65;0.30;;;9.20;81.20;;;;;;5012379;28;20056;-79
2021/01/29 08:06:15;;;;;;;0.30;0.30;;;9.10;81.00;;;;;;5011288;28;20084;-79
2021/01/29 08:08:56;;;;;;;1.10;0.50;;;9.10;80.60;;;;;;5012548;28;20018;-79
2021/01/29 08:11:23;;;;;;;0.88;0.60;;;9.30;80.60;;;;;;5015355;28;20034;-78
2021/01/29 08:14:02;;;;;;;2.70;0.50;;;9.30;79.40;;;;;;5016280;28;20076;-78
2021/01/29 08:16:46;;;;;;;2.72;0.50;;;9.30;78.90;;;;;;5016295;28;20502;-77
2021/01/29 08:19:27;;;;;;;1.02;0.30;;;9.30;79.00;;;;;;5015815;28;20533;-78
2021/01/29 08:22:27;;;;;;;1.48;0.55;;;9.40;78.40;;;;;;5015956;28;20032;-77
2021/01/29 08:25:17;;;;;;;1.60;0.50;;;9.40;77.50;;;;;;5014766;28;20204;-77
2021/01/29 08:28:01;;;;;;;1.50;0.35;;;9.40;77.90;;;;;;5015831;28;20018;-75
2021/01/29 08:30:41;;;;;;;2.92;0.30;;;9.50;78.10;;;;;;5015761;28;20026;-76
2021/01/29 08:33:40;;;;;;;4.60;0.52;;;9.60;76.30;;;;;;5015778;28;20053;-74
2021/01/29 08:36:09;;;;;;;1.38;0.50;;;9.80;77.00;;;;;;5015744;28;20018;-74
2021/01/29 08:38:41;;;;;;;2.40;0.73;;;9.90;74.90;;;;;;5015640;28;20034;-74
2021/01/29 08:41:30;;;;;;;1.23;0.75;;;9.90;74.10;;;;;;5015816;28;20029;-72
2021/01/29 08:44:04;;;;;;;1.05;0.40;;;9.90;74.10;;;;;;5015713;28;20053;-74
2021/01/29 08:46:46;;;;;;;1.45;0.28;;;9.60;74.60;;;;;;5015669;28;20041;-74
2021/01/29 08:49:27;;;;;;;0.68;0.20;;;9.40;75.80;;;;;;5015460;28;20489;-74
2021/01/29 08:52:21;;;;;;;1.10;0.30;;;9.40;76.20;;;;;;5015550;28;20025;-74
2021/01/29 08:55:01;;;;;;;0.28;0.20;;;9.30;76.40;;;;;;5015355;28;20029;-74
2021/01/29 08:58:01;;;;;;;0.13;0.10;;;9.30;76.00;;;;;;5015179;28;20053;-74
2021/01/29 09:00:33;;;;;;;1.98;0.52;;;9.20;75.90;;;;;;5014929;28;20103;-74
2021/01/29 09:03:09;;;;;;;1.73;0.32;;;9.30;75.70;;;;;;5013637;28;20038;-74
2021/01/29 09:05:39;;;;;;;1.10;0.32;;;9.30;75.60;;;;;;5015001;28;20021;-72
2021/01/29 09:08:06;;;;;;;2.05;0.13;;;9.30;75.40;;;;;;5015017;28;20026;-74
2021/01/29 09:11:15;;;;;;;1.48;0.50;;;9.40;74.40;;;;;;5016189;28;20025;-77
2021/01/29 09:13:42;;;;;;;2.92;0.90;;;9.50;73.50;;;;;;5030106;28;20026;-75
2021/01/29 09:16:24;;;;;;;3.05;1.05;;;9.60;73.40;;;;;;5021234;28;20457;-74
2021/01/29 09:19:07;;;;;;;2.58;0.45;;;9.90;73.80;;;;;;5013975;28;20064;-74
2021/01/29 09:22:06;;;;;;;4.25;0.57;;;9.80;72.90;;;;;;5013006;28;20037;-76
2021/01/29 09:25:26;;;;;;;1.13;0.57;;;9.90;73.40;;;;;;5013307;28;20438;-75
2021/01/29 09:28:05;;;;;;;2.47;0.30;;;10.00;73.10;;;;;;4954443;29;20034;-76
2021/01/29 09:30:56;;;;;;;1.08;0.25;;;10.40;71.50;;;;;;5004188;28;20058;-75
2021/01/29 09:33:34;;;;;;;1.67;0.25;;;10.40;71.20;;;;;;5013552;28;20029;-74
2021/01/29 09:36:16;;;;;;;4.78;2.28;;;10.50;70.30;;;;;;5013521;28;20022;-73
2021/01/29 09:39:07;;;;;;;0.45;0.20;;;10.60;69.90;;;;;;5008416;28;20117;-72
2021/01/29 09:41:47;;;;;;;0.75;0.20;;;10.50;69.70;;;;;;5013126;28;20022;-74
2021/01/29 09:44:28;;;;;;;1.38;0.60;;;10.40;69.00;;;;;;5013159;28;20037;-73
2021/01/29 09:46:56;;;;;;;1.67;0.68;;;10.30;70.40;;;;;;5012939;28;20128;-75
2021/01/29 09:49:27;;;;;;;2.88;0.95;;;10.30;71.40;;;;;;5013147;28;20474;-75
2021/01/29 09:52:00;;;;;;;1.08;0.40;;;10.30;72.10;;;;;;5014246;28;20398;-74
2021/01/29 09:54:50;;;;;;;3.40;1.13;;;10.40;71.80;;;;;;5012707;28;20083;-75
2021/01/29 09:57:28;;;;;;;4.47;1.25;;;10.20;72.10;;;;;;5012490;28;20028;-74
2021/01/29 10:00:14;;;;;;;2.22;0.90;;;10.20;72.70;;;;;;5012681;28;20034;-74
2021/01/29 10:02:59;;;;;;;1.30;0.50;;;10.20;72.40;;;;;;5012876;28;20106;-74
2021/01/29 10:05:52;;;;;;;1.90;0.40;;;10.50;70.20;;;;;;5014126;28;20367;-75
2021/01/29 10:08:24;;;;;;;2.10;0.30;;;11.00;67.50;;;;;;5012426;28;20277;-75
2021/01/29 10:11:23;;;;;;;1.27;0.60;;;11.20;66.10;;;;;;5013719;28;20044;-74
2021/01/29 10:14:12;;;;;;;3.00;0.82;;;11.30;63.70;;;;;;5014109;28;20030;-74
2021/01/29 10:17:00;;;;;;;1.08;0.43;;;11.20;63.10;;;;;;5013946;28;20073;-75
2021/01/29 10:19:41;;;;;;;2.97;0.52;;;11.20;63.50;;;;;;5013785;28;20038;-74
2021/01/29 10:22:17;;;;;;;3.08;0.70;;;11.10;62.90;;;;;;5013744;28;20471;-75
2021/01/29 10:25:02;;;;;;;;;;;10.90;63.00;;;;;;5012912;28;20026;-75
2021/01/29 10:27:54;;;;;;;1.80;0.40;;;11.20;62.40;;;;;;5013271;28;20362;-74
2021/01/29 10:30:22;;;;;;;4.03;0.70;;;11.30;61.50;;;;;;5012424;28;20141;-73
2021/01/29 10:33:06;;;;;;;1.80;0.32;;;11.20;60.30;;;;;;5013491;28;20034;-74
2021/01/29 10:35:56;;;;;;;2.28;0.60;;;11.30;60.30;;;;;;5012030;28;20399;-74
2021/01/29 10:38:29;;;;;;;2.17;0.50;;;11.20;59.60;;;;;;5013373;28;20088;-76
2021/01/29 10:41:14;;;;;;;4.05;0.47;;;11.40;59.40;;;;;;5013576;28;20408;-75
2021/01/29 10:43:45;;;;;;;2.60;0.68;;;10.90;59.30;;;;;;5012372;28;20139;-75
2021/01/29 10:46:45;;;;;;;2.85;0.85;;;10.80;59.90;;;;;;5013294;28;20076;-75
2021/01/29 10:49:38;;;;;;;3.10;0.50;;;10.80;60.10;;;;;;4980451;28;20386;-75
2021/01/29 10:52:33;;;;;;;2.40;0.60;;;10.90;60.10;;;;;;5013214;28;20038;-75
2021/01/29 10:55:26;;;;;;;1.60;0.40;;;11.20;60.40;;;;;;5013264;28;20022;-74
2021/01/29 10:58:13;;;;;;;0.85;0.35;;;11.30;60.80;;;;;;5001660;28;20042;-75
2021/01/29 11:00:40;;;;;;;1.80;0.40;;;11.10;61.10;;;;;;5011913;28;20187;-77
2021/01/29 11:03:14;;;;;;;0.63;0.25;;;11.10;60.10;;;;;;5011751;28;20054;-76
2021/01/29 11:05:43;;;;;;;1.17;0.30;;;11.00;59.20;;;;;;5011672;28;20018;-77
2021/01/29 11:08:38;;;;;;;1.75;0.17;;;10.70;61.20;;;;;;5011816;28;20072;-76
2021/01/29 11:11:13;;;;;;;0.55;0.22;;;10.60;63.10;;;;;;5012758;28;20103;-77
2021/01/29 11:13:47;;;;;;;0.20;0.20;;;10.60;63.40;;;;;;5011809;28;20026;-77
2021/01/29 11:16:18;;;;;;;1.10;0.20;;;10.90;64.00;;;;;;5012924;28;20567;-77
2021/01/29 11:18:47;;;;;;;1.38;0.47;;;11.10;63.30;;;;;;5010224;28;20038;-74
2021/01/29 11:21:26;;;;;;;0.38;0.20;;;11.30;61.80;;;;;;5011892;28;20121;-73
2021/01/29 11:24:09;;;;;;;2.08;0.60;;;11.30;60.80;;;;;;5012902;28;20030;-76
2021/01/29 11:26:54;;;;;;;2.30;0.82;;;11.20;61.00;;;;;;5011582;28;20030;-72
2021/01/29 11:29:35;;;;;;;3.25;0.57;;;11.00;60.90;;;;;;5011517;28;20068;-75
2021/01/29 11:32:24;;;;;;;2.67;0.47;;;10.90;62.20;;;;;;5011389;28;20387;-74
2021/01/29 11:35:13;;;;;;;1.90;0.45;;;10.90;62.40;;;;;;5012663;28;20148;-74
2021/01/29 11:37:44;;;;;;;1.10;0.43;;;10.90;62.50;;;;;;5011393;28;20413;-74
2021/01/29 11:40:20;;;;;;;2.10;0.50;;;11.00;62.80;;;;;;5010803;28;20026;-75
2021/01/29 11:43:07;;;;;;;2.35;0.40;;;11.20;62.40;;;;;;5011342;28;20018;-75
2021/01/29 11:45:37;;;;;;;2.08;0.52;;;11.40;61.50;;;;;;5012423;28;20030;-75
2021/01/29 11:48:13;;;;;;;1.02;0.30;;;11.40;60.40;;;;;;5015100;28;20505;-75
2021/01/29 11:50:49;;;;;;;;;;;11.30;61.30;;;;;;5015593;28;20030;-74
2021/01/29 11:53:22;;;;;;;1.65;0.70;;;10.90;61.00;;;;;;5014849;28;19912;-75
2021/01/29 11:55:54;;;;;;;1.30;0.32;;;10.50;61.80;;;;;;5015156;28;20057;-74
2021/01/29 11:58:35;;;;;;;1.27;0.63;;;10.30;63.50;;;;;;5014931;28;20545;-74
2021/01/29 12:01:05;;;;;;;1.63;0.30;;;10.50;63.60;;;;;;5014884;28;20132;-74
2021/01/29 12:03:50;;;;;;;0.80;0.30;;;10.60;63.70;;;;;;5014745;28;20141;-75
2021/01/29 12:06:22;;;;;;;2.00;0.53;;;10.40;63.50;;;;;;5014985;28;20026;-75
2021/01/29 12:09:11;;;;;;;1.63;0.32;;;10.50;63.00;;;;;;5016341;28;20029;-75
2021/01/29 12:11:57;;;;;;;1.35;0.47;;;10.70;62.80;;;;;;5014618;28;20058;-75
2021/01/29 12:14:29;;;;;;;2.15;0.30;;;11.20;61.80;;;;;;5015993;28;20026;-74
2021/01/29 12:16:59;;;;;;;1.40;0.40;;;11.60;59.60;;;;;;5014886;28;20041;-73
2021/01/29 12:19:41;;;;;;;3.47;0.70;;;11.80;58.30;;;;;;5014732;28;20174;-75
2021/01/29 12:22:41;;;;;;;2.35;0.60;;;12.10;57.60;;;;;;5014534;28;20026;-77
2021/01/29 12:25:25;;;;;;;2.10;0.40;;;12.60;56.40;;;;;;5023084;28;20035;-76
2021/01/29 12:28:18;;;;;;;1.85;0.70;;;13.50;53.40;;;;;;5014707;28;20026;-76
2021/01/29 12:31:05;;;;;;;2.50;0.32;;;13.50;52.00;;;;;;5016450;28;20048;-73
2021/01/29 12:33:42;;;;;;;3.78;0.90;;;13.90;50.20;;;;;;5014655;28;20018;-76
2021/01/29 12:36:12;;;;;;;2.55;0.70;;;14.00;50.00;;;;;;4983347;28;20060;-76
2021/01/29 12:39:03;;;;;;;1.58;0.60;;;14.40;48.60;;;;;;5014507;28;20467;-76
2021/01/29 12:41:28;;;;;;;3.85;1.00;;;14.30;48.40;;;;;;5014676;28;20030;-76
2021/01/29 12:44:09;;;;;;;1.50;0.40;;;13.10;49.00;;;;;;5014208;28;20026;-75
2021/01/29 12:46:44;;;;;;;3.95;0.52;;;12.00;52.10;;;;;;5014218;28;20145;-75
2021/01/29 12:49:23;;;;;;;5.50;0.77;;;11.30;55.10;;;;;;5014362;28;20029;-75
2021/01/29 12:51:59;;;;;;;2.00;0.47;;;10.80;57.30;;;;;;5014126;28;20391;-75
2021/01/29 12:54:44;;;;;;;4.25;0.65;;;10.30;59.60;;;;;;5015545;28;20014;-75
2021/01/29 12:57:26;;;;;;;2.75;0.63;;;10.10;61.70;;;;;;5012582;28;20025;-75
2021/01/29 12:59:59;;;;;;;3.33;0.50;;;10.00;62.60;;;;;;5014103;28;20493;-75
2021/01/29 13:02:47;;;;;;;2.67;0.65;;;9.80;63.10;;;;;;5014277;28;20046;-74
2021/01/29 13:05:19;;;;;;;1.85;0.60;;;9.70;64.10;;;;;;5014191;28;20056;-75
2021/01/29 13:07:50;;;;;;;3.65;0.60;;;9.80;64.30;;;;;;5014268;28;20022;-74
2021/01/29 13:10:47;;;;;;;2.08;0.50;;;9.70;64.30;;;;;;5018825;28;20033;-76
2021/01/29 13:13:31;;;;;;;3.38;0.50;;;9.60;64.90;;;;;;5026075;28;20037;-76
2021/01/29 13:16:07;;;;;;;5.72;0.70;;;9.40;65.70;;;;;;5016845;28;20063;-74
2021/01/29 13:18:50;;;;;;;1.92;0.52;;;9.10;68.00;;;;;;5015137;28;20030;-74
2021/01/29 13:21:28;;;;;;;1.50;0.43;;;8.90;70.10;;;;;;5015139;28;20029;-74
2021/01/29 13:23:58;;;;;;;4.35;0.50;;;8.80;71.10;;;;;;5013879;28;20026;-74
2021/01/29 13:26:27;;;;;;;0.32;0.25;;;8.70;71.60;;;;;;5014998;28;20375;-75
2021/01/29 13:28:58;;;;;;;1.55;0.45;;;8.80;70.80;;;;;;5014753;28;20109;-74
2021/01/29 13:31:39;;;;;;;3.75;0.60;;;8.80;70.80;;;;;;5014832;28;20066;-75
2021/01/29 13:34:21;;;;;;;0.40;0.20;;;9.00;69.70;;;;;;5014237;28;20034;-75
2021/01/29 13:37:01;;;;;;;1.10;0.52;;;9.00;68.90;;;;;;5013125;28;20466;-75
2021/01/29 13:39:35;;;;;;;2.75;0.45;;;8.90;68.40;;;;;;5013446;28;20494;-74
2021/01/29 13:42:18;;;;;;;1.73;0.30;;;8.90;68.00;;;;;;5013299;28;20037;-74
2021/01/29 13:44:47;;;;;;;2.70;0.20;;;9.70;66.30;;;;;;5013271;28;20430;-74
2021/01/29 13:47:22;;;;;;;1.77;0.47;;;10.10;63.90;;;;;;5014269;28;20037;-74
2021/01/29 13:49:49;;;;;;;0.65;0.22;;;10.20;62.90;;;;;;5014467;28;20479;-74
2021/01/29 13:52:33;;;;;;;1.77;0.10;;;10.60;61.70;;;;;;5012571;28;20128;-74
2021/01/29 13:55:33;;;;;;;2.42;0.45;;;10.60;61.00;;;;;;5012895;28;20022;-75
2021/01/29 13:58:05;;;;;;;1.35;0.50;;;10.20;61.40;;;;;;5014113;28;20037;-74
2021/01/29 14:00:37;;;;;;;1.70;0.40;;;9.90;63.10;;;;;;5013038;28;20026;-75
2021/01/29 14:03:09;;;;;;;1.63;0.68;;;9.60;64.20;;;;;;5012905;28;20061;-74